PWSweather.com
Personal Weather Stations
Station Observations
SHAHALMS1
Eftra, Falkenberg, HA

EftraFalkenberg, HA

Lat: 56.85, Lon: 12.65

Elevation: 140

Station Type:

http://hem.passagen.se/risarp101

High Low Average
Temperature 49.3°F9.6°C 25.5°F-3.6°C 38.3°F3.5°C
Dew Point 24.9°F-3.9°C 12.9°F-10.6°C 18.2°F-7.7°C
Winds 12.4 mph 20.0 kmh Calm Calm 6.0 mph ENE9.7 kmh ENE
Wind Gusts 24.7 mph39.8 kmh -- 12.0 mph19.3 kmh
Humidity 69% 29% 46%
Pressure 30.51 in1033.2 mb 30.39 in1029.1 mb -
Precipitation 0.00 in0.0 mm - -
Hour Temp Dew Point Humidity Winds Wind Gusts Pressure Precip Precip Rate Daily Precip Total
12:00 AM 30.2°F-1.0°C 17.6°F-8.0°C 59% 3.4 mph SE5.5 kmh SE 10.0 mph16.1 kmh 30.45 in1031.2 mb 0.00 in0.0 mm 0.00 in0.0 mm 0.00 in0.0 mm
12:15 AM 29.7°F-1.3°C 17.1°F-8.3°C 59% 4.9 mph SE7.9 kmh SE 10.0 mph16.1 kmh 30.45 in1031.2 mb 0.00 in0.0 mm 0.00 in0.0 mm 0.00 in0.0 mm
12:30 AM 29.3°F-1.5°C 17.1°F-8.3°C 60% 5.1 mph E8.2 kmh E 11.5 mph18.5 kmh 30.45 in1031.2 mb 0.00 in0.0 mm 0.00 in0.0 mm 0.00 in0.0 mm
12:45 AM 29.1°F-1.6°C 17.0°F-8.3°C 60% 0.9 mph ESE1.4 kmh ESE 10.0 mph16.1 kmh 30.45 in1031.2 mb 0.00 in0.0 mm 0.00 in0.0 mm 0.00 in0.0 mm
01:00 AM 28.9°F-1.7°C 16.8°F-8.4°C 60% 2.4 mph ESE3.9 kmh ESE 9.7 mph15.6 kmh 30.48 in1032.2 mb 0.00 in0.0 mm 0.00 in0.0 mm 0.00 in0.0 mm
01:15 AM 28.4°F-2.0°C 15.9°F-8.9°C 59% Calm Calm -- 30.48 in1032.2 mb 0.00 in0.0 mm 0.00 in0.0 mm 0.00 in0.0 mm
01:30 AM 27.7°F-2.4°C 15.2°F-9.3°C 59% 0.2 mph SE0.3 kmh SE 2.5 mph4.0 kmh 30.45 in1031.2 mb 0.00 in0.0 mm 0.00 in0.0 mm 0.00 in0.0 mm
01:45 AM 27.0°F-2.8°C 14.9°F-9.5°C 60% Calm Calm -- 30.45 in1031.2 mb 0.00 in0.0 mm 0.00 in0.0 mm 0.00 in0.0 mm
02:00 AM 27.1°F-2.7°C 15.5°F-9.2°C 61% Calm Calm -- 30.45 in1031.2 mb 0.00 in0.0 mm 0.00 in0.0 mm 0.00 in0.0 mm
02:15 AM 26.6°F-3.0°C 14.9°F-9.5°C 61% 0.2 mph SE0.3 kmh SE 4.3 mph6.9 kmh 30.45 in1031.2 mb 0.00 in0.0 mm 0.00 in0.0 mm 0.00 in0.0 mm
02:30 AM 26.4°F-3.1°C 15.2°F-9.3°C 62% Calm Calm -- 30.45 in1031.2 mb 0.00 in0.0 mm 0.00 in0.0 mm 0.00 in0.0 mm
02:45 AM 26.1°F-3.3°C 14.8°F-9.6°C 62% Calm Calm -- 30.45 in1031.2 mb 0.00 in0.0 mm 0.00 in0.0 mm 0.00 in0.0 mm
03:00 AM 26.1°F-3.3°C 15.2°F-9.3°C 63% Calm Calm -- 30.45 in1031.2 mb 0.00 in0.0 mm 0.00 in0.0 mm 0.00 in0.0 mm
03:15 AM 27.0°F-2.8°C 16.0°F-8.9°C 63% 2.3 mph E3.7 kmh E 9.3 mph15.0 kmh 30.45 in1031.2 mb 0.00 in0.0 mm 0.00 in0.0 mm 0.00 in0.0 mm
03:30 AM 27.1°F-2.7°C 15.8°F-9.0°C 62% 0.6 mph E1.0 kmh E 6.4 mph10.3 kmh 30.48 in1032.2 mb 0.00 in0.0 mm 0.00 in0.0 mm 0.00 in0.0 mm
03:45 AM 27.1°F-2.7°C 16.2°F-8.8°C 63% 2.2 mph E3.5 kmh E 10.0 mph16.1 kmh 30.48 in1032.2 mb 0.00 in0.0 mm 0.00 in0.0 mm 0.00 in0.0 mm
04:00 AM 27.0°F-2.8°C 15.7°F-9.1°C 62% 0.7 mph E1.1 kmh E 7.9 mph12.7 kmh 30.48 in1032.2 mb 0.00 in0.0 mm 0.00 in0.0 mm 0.00 in0.0 mm
04:15 AM 26.4°F-3.1°C 15.2°F-9.3°C 62% 0.7 mph E1.1 kmh E 7.9 mph12.7 kmh 30.48 in1032.2 mb 0.00 in0.0 mm 0.00 in0.0 mm 0.00 in0.0 mm
04:30 AM 25.9°F-3.4°C 15.0°F-9.4°C 63% 0.4 mph ENE0.6 kmh ENE 5.7 mph9.2 kmh 30.48 in1032.2 mb 0.00 in0.0 mm 0.00 in0.0 mm 0.00 in0.0 mm
04:45 AM 25.7°F-3.5°C 14.8°F-9.6°C 63% 0.1 mph E0.2 kmh E 4.7 mph7.6 kmh 30.48 in1032.2 mb 0.00 in0.0 mm 0.00 in0.0 mm 0.00 in0.0 mm
05:00 AM 25.5°F-3.6°C 15.0°F-9.4°C 64% Calm Calm -- 30.48 in1032.2 mb 0.00 in0.0 mm 0.00 in0.0 mm 0.00 in0.0 mm
05:15 AM 25.5°F-3.6°C 15.0°F-9.4°C 64% 0.4 mph E0.6 kmh E 4.3 mph6.9 kmh 30.51 in1033.2 mb 0.00 in0.0 mm 0.00 in0.0 mm 0.00 in0.0 mm
05:30 AM 26.2°F-3.2°C 16.4°F-8.7°C 66% Calm Calm -- 30.48 in1032.2 mb 0.00 in0.0 mm 0.00 in0.0 mm 0.00 in0.0 mm
05:45 AM 27.3°F-2.6°C 17.8°F-7.9°C 67% Calm Calm -- 30.48 in1032.2 mb 0.00 in0.0 mm 0.00 in0.0 mm 0.00 in0.0 mm
06:00 AM 28.2°F-2.1°C 18.7°F-7.4°C 67% Calm Calm -- 30.45 in1031.2 mb 0.00 in0.0 mm 0.00 in0.0 mm 0.00 in0.0 mm
06:15 AM 28.4°F-2.0°C 18.8°F-7.3°C 67% Calm Calm -- 30.45 in1031.2 mb 0.00 in0.0 mm 0.00 in0.0 mm 0.00 in0.0 mm
06:30 AM 30.0°F-1.1°C 20.7°F-6.3°C 68% Calm Calm -- 30.48 in1032.2 mb 0.00 in0.0 mm 0.00 in0.0 mm 0.00 in0.0 mm
06:45 AM 32.4°F0.2°C 23.3°F-4.8°C 69% 1.3 mph E2.1 kmh E 7.9 mph12.7 kmh 30.48 in1032.2 mb 0.00 in0.0 mm 0.00 in0.0 mm 0.00 in0.0 mm
07:00 AM 34.3°F1.3°C 24.2°F-4.3°C 66% 2.2 mph E3.5 kmh E 7.9 mph12.7 kmh 30.48 in1032.2 mb 0.00 in0.0 mm 0.00 in0.0 mm 0.00 in0.0 mm
07:15 AM 35.2°F1.8°C 23.9°F-4.5°C 63% 3.3 mph E5.3 kmh E 10.0 mph16.1 kmh 30.48 in1032.2 mb 0.00 in0.0 mm 0.00 in0.0 mm 0.00 in0.0 mm
07:30 AM 36.0°F2.2°C 23.8°F-4.6°C 61% 5.3 mph E8.5 kmh E 10.0 mph16.1 kmh 30.48 in1032.2 mb 0.00 in0.0 mm 0.00 in0.0 mm 0.00 in0.0 mm
07:45 AM 37.6°F3.1°C 24.9°F-3.9°C 60% 2.4 mph E3.9 kmh E 9.7 mph15.6 kmh 30.48 in1032.2 mb 0.00 in0.0 mm 0.00 in0.0 mm 0.00 in0.0 mm
08:00 AM 38.8°F3.8°C 24.9°F-3.9°C 57% 6.3 mph ENE10.1 kmh ENE 13.6 mph21.9 kmh 30.48 in1032.2 mb 0.00 in0.0 mm 0.00 in0.0 mm 0.00 in0.0 mm
08:15 AM 38.7°F3.7°C 23.4°F-4.8°C 54% 8.1 mph E13.0 kmh E 16.1 mph25.9 kmh 30.48 in1032.2 mb 0.00 in0.0 mm 0.00 in0.0 mm 0.00 in0.0 mm
08:30 AM 38.5°F3.6°C 22.8°F-5.1°C 53% 9.7 mph E15.6 kmh E 17.2 mph27.7 kmh 30.48 in1032.2 mb 0.00 in0.0 mm 0.00 in0.0 mm 0.00 in0.0 mm
08:45 AM 39.0°F3.9°C 23.3°F-4.8°C 53% 8.6 mph ENE13.8 kmh ENE 16.5 mph26.6 kmh 30.48 in1032.2 mb 0.00 in0.0 mm 0.00 in0.0 mm 0.00 in0.0 mm
09:00 AM 39.6°F4.2°C 23.4°F-4.8°C 52% 9.1 mph E14.6 kmh E 16.5 mph26.6 kmh 30.48 in1032.2 mb 0.00 in0.0 mm 0.00 in0.0 mm 0.00 in0.0 mm
09:15 AM 39.9°F4.4°C 23.7°F-4.6°C 52% 7.9 mph ENE12.7 kmh ENE 13.6 mph21.9 kmh 30.48 in1032.2 mb 0.00 in0.0 mm 0.00 in0.0 mm 0.00 in0.0 mm
09:30 AM 40.5°F4.7°C 23.7°F-4.6°C 51% 7.7 mph ENE12.4 kmh ENE 14.0 mph22.5 kmh 30.48 in1032.2 mb 0.00 in0.0 mm 0.00 in0.0 mm 0.00 in0.0 mm
09:45 AM 41.0°F5.0°C 23.3°F-4.8°C 49% 7.7 mph ENE12.4 kmh ENE 13.6 mph21.9 kmh 30.48 in1032.2 mb 0.00 in0.0 mm 0.00 in0.0 mm 0.00 in0.0 mm
10:00 AM 41.5°F5.3°C 23.3°F-4.8°C 48% 8.0 mph ENE12.9 kmh ENE 20.0 mph32.2 kmh 30.48 in1032.2 mb 0.00 in0.0 mm 0.00 in0.0 mm 0.00 in0.0 mm
10:15 AM 42.1°F5.6°C 22.8°F-5.1°C 46% 9.6 mph E15.4 kmh E 19.7 mph31.7 kmh 30.48 in1032.2 mb 0.00 in0.0 mm 0.00 in0.0 mm 0.00 in0.0 mm
10:30 AM 42.6°F5.9°C 22.7°F-5.2°C 45% 7.5 mph E12.1 kmh E 14.0 mph22.5 kmh 30.48 in1032.2 mb 0.00 in0.0 mm 0.00 in0.0 mm 0.00 in0.0 mm
10:45 AM 43.0°F6.1°C 22.5°F-5.3°C 44% 7.3 mph E11.7 kmh E 14.0 mph22.5 kmh 30.48 in1032.2 mb 0.00 in0.0 mm 0.00 in0.0 mm 0.00 in0.0 mm
11:00 AM 43.7°F6.5°C 22.1°F-5.5°C 42% 7.5 mph E12.1 kmh E 16.5 mph26.6 kmh 30.48 in1032.2 mb 0.00 in0.0 mm 0.00 in0.0 mm 0.00 in0.0 mm
11:15 AM 44.4°F6.9°C 21.6°F-5.8°C 40% 10.4 mph E16.7 kmh E 19.7 mph31.7 kmh 30.48 in1032.2 mb 0.00 in0.0 mm 0.00 in0.0 mm 0.00 in0.0 mm
11:30 AM 44.2°F6.8°C 20.8°F-6.2°C 39% 12.4 mph E20.0 kmh E 24.3 mph39.1 kmh 30.48 in1032.2 mb 0.00 in0.0 mm 0.00 in0.0 mm 0.00 in0.0 mm
11:45 AM 45.0°F7.2°C 22.1°F-5.5°C 40% 7.7 mph E12.4 kmh E 17.9 mph28.8 kmh 30.48 in1032.2 mb 0.00 in0.0 mm 0.00 in0.0 mm 0.00 in0.0 mm
12:00 PM 45.7°F7.6°C 22.1°F-5.5°C 39% 8.7 mph E14.0 kmh E 15.7 mph25.3 kmh 30.45 in1031.2 mb 0.00 in0.0 mm 0.00 in0.0 mm 0.00 in0.0 mm
12:15 PM 46.2°F7.9°C 21.3°F-5.9°C 37% 6.8 mph NE10.9 kmh NE 14.0 mph22.5 kmh 30.45 in1031.2 mb 0.00 in0.0 mm 0.00 in0.0 mm 0.00 in0.0 mm
12:30 PM 46.6°F8.1°C 20.4°F-6.4°C 35% 7.7 mph ENE12.4 kmh ENE 16.5 mph26.6 kmh 30.45 in1031.2 mb 0.00 in0.0 mm 0.00 in0.0 mm 0.00 in0.0 mm
12:45 PM 47.3°F8.5°C 21.0°F-6.1°C 35% 6.1 mph NE9.8 kmh NE 12.5 mph20.1 kmh 30.45 in1031.2 mb 0.00 in0.0 mm 0.00 in0.0 mm 0.00 in0.0 mm
01:02 PM 47.8°F8.8°C 20.8°F-6.2°C 34% 8.8 mph E14.2 kmh E 18.3 mph29.5 kmh 30.42 in1030.1 mb 0.00 in0.0 mm 0.00 in0.0 mm 0.00 in0.0 mm
01:15 PM 48.2°F9.0°C 19.7°F-6.8°C 32% 10.1 mph E16.3 kmh E 24.7 mph39.8 kmh 30.42 in1030.1 mb 0.00 in0.0 mm 0.00 in0.0 mm 0.00 in0.0 mm
01:30 PM 48.4°F9.1°C 19.1°F-7.2°C 31% 9.2 mph E14.8 kmh E 20.8 mph33.5 kmh 30.42 in1030.1 mb 0.00 in0.0 mm 0.00 in0.0 mm 0.00 in0.0 mm
01:45 PM 48.7°F9.3°C 19.4°F-7.0°C 31% 8.2 mph ENE13.2 kmh ENE 17.5 mph28.2 kmh 30.42 in1030.1 mb 0.00 in0.0 mm 0.00 in0.0 mm 0.00 in0.0 mm
02:00 PM 48.9°F9.4°C 19.6°F-6.9°C 31% 7.6 mph ENE12.2 kmh ENE 18.3 mph29.5 kmh 30.42 in1030.1 mb 0.00 in0.0 mm 0.00 in0.0 mm 0.00 in0.0 mm
02:15 PM 48.9°F9.4°C 18.8°F-7.3°C 30% 6.8 mph ENE10.9 kmh ENE 15.7 mph25.3 kmh 30.39 in1029.1 mb 0.00 in0.0 mm 0.00 in0.0 mm 0.00 in0.0 mm
02:30 PM 49.3°F9.6°C 19.9°F-6.7°C 31% 7.4 mph E11.9 kmh E 14.0 mph22.5 kmh 30.39 in1029.1 mb 0.00 in0.0 mm 0.00 in0.0 mm 0.00 in0.0 mm
02:45 PM 49.1°F9.5°C 19.0°F-7.2°C 30% 8.4 mph E13.5 kmh E 24.7 mph39.8 kmh 30.39 in1029.1 mb 0.00 in0.0 mm 0.00 in0.0 mm 0.00 in0.0 mm
03:00 PM 49.1°F9.5°C 18.2°F-7.7°C 29% 8.7 mph NE14.0 kmh NE 20.4 mph32.8 kmh 30.42 in1030.1 mb 0.00 in0.0 mm 0.00 in0.0 mm 0.00 in0.0 mm
03:15 PM 49.1°F9.5°C 18.2°F-7.7°C 29% 7.7 mph NE12.4 kmh NE 17.5 mph28.2 kmh 30.42 in1030.1 mb 0.00 in0.0 mm 0.00 in0.0 mm 0.00 in0.0 mm
03:30 PM 49.3°F9.6°C 18.3°F-7.6°C 29% 8.9 mph E14.3 kmh E 16.5 mph26.6 kmh 30.42 in1030.1 mb 0.00 in0.0 mm 0.00 in0.0 mm 0.00 in0.0 mm
03:45 PM 49.1°F9.5°C 18.2°F-7.7°C 29% 8.3 mph NE13.4 kmh NE 16.5 mph26.6 kmh 30.42 in1030.1 mb 0.00 in0.0 mm 0.00 in0.0 mm 0.00 in0.0 mm
04:00 PM 49.1°F9.5°C 18.2°F-7.7°C 29% 10.5 mph E16.9 kmh E 21.1 mph34.0 kmh 30.39 in1029.1 mb 0.00 in0.0 mm 0.00 in0.0 mm 0.00 in0.0 mm
04:15 PM 49.3°F9.6°C 18.3°F-7.6°C 29% 8.6 mph E13.8 kmh E 19.0 mph30.6 kmh 30.39 in1029.1 mb 0.00 in0.0 mm 0.00 in0.0 mm 0.00 in0.0 mm
04:30 PM 49.1°F9.5°C 18.2°F-7.7°C 29% 7.6 mph E12.2 kmh E 19.7 mph31.7 kmh 30.42 in1030.1 mb 0.00 in0.0 mm 0.00 in0.0 mm 0.00 in0.0 mm
04:45 PM 49.1°F9.5°C 18.2°F-7.7°C 29% 8.1 mph E13.0 kmh E 19.3 mph31.1 kmh 30.39 in1029.1 mb 0.00 in0.0 mm 0.00 in0.0 mm 0.00 in0.0 mm
05:00 PM 48.7°F9.3°C 17.9°F-7.8°C 29% 9.6 mph E15.4 kmh E 19.3 mph31.1 kmh 30.42 in1030.1 mb 0.00 in0.0 mm 0.00 in0.0 mm 0.00 in0.0 mm
05:15 PM 48.6°F9.2°C 17.7°F-7.9°C 29% 9.3 mph E15.0 kmh E 16.1 mph25.9 kmh 30.42 in1030.1 mb 0.00 in0.0 mm 0.00 in0.0 mm 0.00 in0.0 mm
05:30 PM 48.2°F9.0°C 17.4°F-8.1°C 29% 8.8 mph E14.2 kmh E 14.0 mph22.5 kmh 30.39 in1029.1 mb 0.00 in0.0 mm 0.00 in0.0 mm 0.00 in0.0 mm
05:45 PM 47.3°F8.5°C 16.6°F-8.6°C 29% 10.1 mph E16.3 kmh E 17.5 mph28.2 kmh 30.39 in1029.1 mb 0.00 in0.0 mm 0.00 in0.0 mm 0.00 in0.0 mm
06:00 PM 46.4°F8.0°C 15.8°F-9.0°C 29% 10.7 mph E17.2 kmh E 21.5 mph34.6 kmh 30.39 in1029.1 mb 0.00 in0.0 mm 0.00 in0.0 mm 0.00 in0.0 mm
06:15 PM 45.7°F7.6°C 16.0°F-8.9°C 30% 9.1 mph E14.6 kmh E 20.0 mph32.2 kmh 30.42 in1030.1 mb 0.00 in0.0 mm 0.00 in0.0 mm 0.00 in0.0 mm
06:30 PM 45.0°F7.2°C 15.3°F-9.3°C 30% 9.1 mph E14.6 kmh E 17.5 mph28.2 kmh 30.42 in1030.1 mb 0.00 in0.0 mm 0.00 in0.0 mm 0.00 in0.0 mm
06:45 PM 44.2°F6.8°C 14.7°F-9.6°C 30% 7.4 mph E11.9 kmh E 13.6 mph21.9 kmh 30.42 in1030.1 mb 0.00 in0.0 mm 0.00 in0.0 mm 0.00 in0.0 mm
07:00 PM 43.3°F6.3°C 13.9°F-10.1°C 30% 6.1 mph E9.8 kmh E 11.8 mph19.0 kmh 30.42 in1030.1 mb 0.00 in0.0 mm 0.00 in0.0 mm 0.00 in0.0 mm
07:15 PM 42.4°F5.8°C 13.9°F-10.1°C 31% 4.9 mph E7.9 kmh E 10.0 mph16.1 kmh 30.42 in1030.1 mb 0.00 in0.0 mm 0.00 in0.0 mm 0.00 in0.0 mm
07:30 PM 41.4°F5.2°C 12.9°F-10.6°C 31% 5.9 mph E9.5 kmh E 11.5 mph18.5 kmh 30.45 in1031.2 mb 0.00 in0.0 mm 0.00 in0.0 mm 0.00 in0.0 mm
07:45 PM 40.5°F4.7°C 12.9°F-10.6°C 32% 5.7 mph E9.2 kmh E 10.4 mph16.7 kmh 30.39 in1029.1 mb 0.00 in0.0 mm 0.00 in0.0 mm 0.00 in0.0 mm
08:00 PM 40.1°F4.5°C 13.3°F-10.4°C 33% 7.0 mph E11.3 kmh E 16.1 mph25.9 kmh 30.42 in1030.1 mb 0.00 in0.0 mm 0.00 in0.0 mm 0.00 in0.0 mm
08:15 PM 40.1°F4.5°C 13.9°F-10.1°C 34% 7.4 mph E11.9 kmh E 12.5 mph20.1 kmh 30.45 in1031.2 mb 0.00 in0.0 mm 0.00 in0.0 mm 0.00 in0.0 mm
08:30 PM 39.6°F4.2°C 14.1°F-9.9°C 35% 7.8 mph E12.6 kmh E 13.6 mph21.9 kmh 30.45 in1031.2 mb 0.00 in0.0 mm 0.00 in0.0 mm 0.00 in0.0 mm
08:45 PM 39.2°F4.0°C 15.7°F-9.1°C 38% 9.4 mph E15.1 kmh E 20.8 mph33.5 kmh 30.45 in1031.2 mb 0.00 in0.0 mm 0.00 in0.0 mm 0.00 in0.0 mm
09:00 PM 39.0°F3.9°C 16.7°F-8.5°C 40% 12.4 mph E20.0 kmh E 21.1 mph34.0 kmh 30.48 in1032.2 mb 0.00 in0.0 mm 0.00 in0.0 mm 0.00 in0.0 mm
09:15 PM 38.5°F3.6°C 16.8°F-8.4°C 41% 11.2 mph E18.0 kmh E 19.3 mph31.1 kmh 30.48 in1032.2 mb 0.00 in0.0 mm 0.00 in0.0 mm 0.00 in0.0 mm
09:30 PM 37.9°F3.3°C 16.9°F-8.4°C 42% 9.6 mph E15.4 kmh E 15.4 mph24.8 kmh 30.48 in1032.2 mb 0.00 in0.0 mm 0.00 in0.0 mm 0.00 in0.0 mm
09:45 PM 37.4°F3.0°C 16.9°F-8.4°C 43% 9.4 mph E15.1 kmh E 19.0 mph30.6 kmh 30.51 in1033.2 mb 0.00 in0.0 mm 0.00 in0.0 mm 0.00 in0.0 mm
10:00 PM 36.9°F2.7°C 16.4°F-8.7°C 43% 7.9 mph E12.7 kmh E 14.0 mph22.5 kmh 30.48 in1032.2 mb 0.00 in0.0 mm 0.00 in0.0 mm 0.00 in0.0 mm
10:15 PM 36.0°F2.2°C 16.1°F-8.8°C 44% 6.1 mph E9.8 kmh E 11.5 mph18.5 kmh 30.48 in1032.2 mb 0.00 in0.0 mm 0.00 in0.0 mm 0.00 in0.0 mm
10:30 PM 35.2°F1.8°C 16.0°F-8.9°C 45% 6.7 mph E10.8 kmh E 11.5 mph18.5 kmh 30.48 in1032.2 mb 0.00 in0.0 mm 0.00 in0.0 mm 0.00 in0.0 mm
10:45 PM 34.7°F1.5°C 16.0°F-8.9°C 46% 6.6 mph E10.6 kmh E 12.2 mph19.6 kmh 30.48 in1032.2 mb 0.00 in0.0 mm 0.00 in0.0 mm 0.00 in0.0 mm
11:00 PM 34.5°F1.4°C 16.3°F-8.7°C 47% 6.5 mph E10.5 kmh E 11.8 mph19.0 kmh 30.48 in1032.2 mb 0.00 in0.0 mm 0.00 in0.0 mm 0.00 in0.0 mm
11:15 PM 34.0°F1.1°C 15.8°F-9.0°C 47% 6.3 mph E10.1 kmh E 11.5 mph18.5 kmh 30.48 in1032.2 mb 0.00 in0.0 mm 0.00 in0.0 mm 0.00 in0.0 mm
11:30 PM 33.3°F0.7°C 15.2°F-9.3°C 47% 4.2 mph E6.8 kmh E 8.9 mph14.3 kmh 30.48 in1032.2 mb 0.00 in0.0 mm 0.00 in0.0 mm 0.00 in0.0 mm
11:45 PM 32.5°F0.3°C 14.5°F-9.7°C 47% 0.8 mph ENE1.3 kmh ENE 6.1 mph9.8 kmh 30.48 in1032.2 mb 0.00 in0.0 mm 0.00 in0.0 mm 0.00 in0.0 mm